createdAt,value
2019-01-25T00:00:38.695Z,1005.4
2019-01-25T00:01:40.945Z,1005.4
2019-01-25T00:02:43.480Z,1005.4
2019-01-25T00:03:45.687Z,1005.4
2019-01-25T00:04:48.204Z,1005.4
2019-01-25T00:05:50.412Z,1005.5
2019-01-25T00:06:52.619Z,1005.5
2019-01-25T00:07:54.826Z,1005.5
2019-01-25T00:08:57.043Z,1005.5
2019-01-25T00:09:59.253Z,1005.5
2019-01-25T00:11:01.889Z,1005.5
2019-01-25T00:12:04.102Z,1005.5
2019-01-25T00:13:06.587Z,1005.5
2019-01-25T00:14:08.800Z,1005.4
2019-01-25T00:15:11.291Z,1005.4
2019-01-25T00:16:13.490Z,1005.5
2019-01-25T00:17:16.269Z,1005.5
2019-01-25T00:18:18.765Z,1005.5
2019-01-25T00:19:20.977Z,1005.5
2019-01-25T00:20:23.188Z,1005.5
2019-01-25T00:21:25.391Z,1005.5
2019-01-25T00:22:27.622Z,1005.5
2019-01-25T00:23:29.823Z,1005.5
2019-01-25T00:24:32.033Z,1005.5
2019-01-25T00:25:34.243Z,1005.5
2019-01-25T00:26:36.449Z,1005.5
2019-01-25T00:27:38.659Z,1005.5
2019-01-25T00:28:40.966Z,1005.5
2019-01-25T00:29:43.593Z,1005.5
2019-01-25T00:30:46.084Z,1005.5
2019-01-25T00:31:48.304Z,1005.5
2019-01-25T00:32:50.508Z,1005.5
2019-01-25T00:33:52.724Z,1005.5
2019-01-25T00:34:54.930Z,1005.5
2019-01-25T00:35:57.135Z,1005.6
2019-01-25T00:36:59.350Z,1005.6
2019-01-25T00:38:01.574Z,1005.6
2019-01-25T00:39:04.455Z,1005.5
2019-01-25T00:40:06.865Z,1005.5
2019-01-25T00:41:09.456Z,1005.6
2019-01-25T00:42:11.706Z,1005.6
2019-01-25T00:43:13.913Z,1005.5
2019-01-25T00:44:16.113Z,1005.5
2019-01-25T00:45:18.329Z,1005.5
2019-01-25T00:46:20.537Z,1005.5
2019-01-25T00:47:22.742Z,1005.5
2019-01-25T00:48:24.950Z,1005.5
2019-01-25T00:49:27.156Z,1005.5
2019-01-25T00:50:29.362Z,1005.5
2019-01-25T00:51:31.567Z,1005.5
2019-01-25T00:52:33.772Z,1005.5
2019-01-25T00:53:36.262Z,1005.5
2019-01-25T00:54:38.464Z,1005.5
2019-01-25T00:55:40.685Z,1005.5
2019-01-25T00:56:43.178Z,1005.5
2019-01-25T00:57:45.389Z,1005.5
2019-01-25T00:58:47.991Z,1005.5
2019-01-25T00:59:50.200Z,1005.5
2019-01-25T01:00:52.410Z,1005.5
2019-01-25T01:01:54.933Z,1005.5
2019-01-25T01:02:57.132Z,1005.5
2019-01-25T01:03:59.347Z,1005.5
2019-01-25T01:05:01.560Z,1005.5
2019-01-25T01:06:03.769Z,1005.5
2019-01-25T01:07:06.282Z,1005.4
2019-01-25T01:08:08.492Z,1005.4
2019-01-25T01:09:10.986Z,1005.4
2019-01-25T01:10:14.554Z,1005.4
2019-01-25T01:11:16.771Z,1005.5
2019-01-25T01:12:19.263Z,1005.5
2019-01-25T01:13:21.463Z,1005.5
2019-01-25T01:14:23.669Z,1005.5
2019-01-25T01:15:25.871Z,1005.5
2019-01-25T01:16:28.077Z,1005.5
2019-01-25T01:17:30.676Z,1005.5
2019-01-25T01:18:32.884Z,1005.5
2019-01-25T01:19:35.086Z,1005.5
2019-01-25T01:20:37.692Z,1005.5
2019-01-25T01:21:39.911Z,1005.5
2019-01-25T01:22:42.123Z,1005.5
2019-01-25T01:23:44.345Z,1005.5
2019-01-25T01:24:46.545Z,1005.5
2019-01-25T01:25:48.731Z,1005.5
2019-01-25T01:26:50.907Z,1005.5
2019-01-25T01:27:53.089Z,1005.5
2019-01-25T01:28:55.297Z,1005.5
2019-01-25T01:29:57.482Z,1005.5
2019-01-25T01:30:59.648Z,1005.5
2019-01-25T01:32:01.860Z,1005.5
2019-01-25T01:33:04.021Z,1005.5
2019-01-25T01:34:06.205Z,1005.5
2019-01-25T01:35:08.672Z,1005.5
2019-01-25T01:36:10.856Z,1005.5
2019-01-25T01:37:13.039Z,1005.5
2019-01-25T01:38:15.576Z,1005.5
2019-01-25T01:39:17.761Z,1005.5
2019-01-25T01:40:22.424Z,1005.5
2019-01-25T01:41:24.903Z,1005.5
2019-01-25T01:42:27.450Z,1005.4
2019-01-25T01:43:29.639Z,1005.4
2019-01-25T01:44:31.807Z,1005.4
2019-01-25T01:45:33.976Z,1005.4
2019-01-25T01:46:36.159Z,1005.5
2019-01-25T01:47:38.313Z,1005.5
2019-01-25T01:48:41.258Z,1005.5
2019-01-25T01:49:43.435Z,1005.5
2019-01-25T01:50:45.941Z,1005.5
2019-01-25T01:51:48.109Z,1005.5
2019-01-25T01:52:50.283Z,1005.5
2019-01-25T01:53:52.740Z,1005.5
2019-01-25T01:54:55.293Z,1005.5
2019-01-25T01:55:57.453Z,1005.5
2019-01-25T01:56:59.619Z,1005.5
2019-01-25T01:58:02.179Z,1005.4
2019-01-25T01:59:04.330Z,1005.4
2019-01-25T02:00:06.512Z,1005.4
2019-01-25T02:01:08.722Z,1005.4
2019-01-25T02:02:11.157Z,1005.4
2019-01-25T02:03:13.333Z,1005.4
2019-01-25T02:04:15.495Z,1005.3
2019-01-25T02:05:17.673Z,1005.4
2019-01-25T02:06:20.123Z,1005.4
2019-01-25T02:07:22.890Z,1005.3
2019-01-25T02:08:25.046Z,1005.4
2019-01-25T02:09:27.605Z,1005.3
2019-01-25T02:10:30.129Z,1005.4
2019-01-25T02:11:32.284Z,1005.4
2019-01-25T02:12:34.774Z,1005.4
2019-01-25T02:13:36.961Z,1005.4
2019-01-25T02:14:39.140Z,1005.4
2019-01-25T02:15:41.584Z,1005.4
2019-01-25T02:16:43.759Z,1005.5
2019-01-25T02:17:45.923Z,1005.4
2019-01-25T02:18:48.087Z,1005.4
2019-01-25T02:19:50.276Z,1005.4
2019-01-25T02:20:52.427Z,1005.4
2019-01-25T02:21:54.590Z,1005.3
2019-01-25T02:22:56.772Z,1005.4
2019-01-25T02:23:58.945Z,1005.4
2019-01-25T02:25:01.097Z,1005.3
2019-01-25T02:26:03.550Z,1005.4
2019-01-25T02:27:05.709Z,1005.4
2019-01-25T02:28:07.879Z,1005.3
2019-01-25T02:29:10.058Z,1005.3
2019-01-25T02:30:12.237Z,1005.3
2019-01-25T02:31:14.744Z,1005.3
2019-01-25T02:32:16.938Z,1005.3
2019-01-25T02:33:19.104Z,1005.3
2019-01-25T02:34:21.567Z,1005.3
2019-01-25T02:35:23.749Z,1005.3
2019-01-25T02:36:25.969Z,1005.3
2019-01-25T02:37:28.145Z,1005.3
2019-01-25T02:38:30.334Z,1005.3
2019-01-25T02:39:32.824Z,1005.3
2019-01-25T02:40:39.621Z,1005.3
2019-01-25T02:41:41.817Z,1005.2
2019-01-25T02:42:43.988Z,1005.3
2019-01-25T02:43:46.164Z,1005.3
2019-01-25T02:44:48.350Z,1005.3
2019-01-25T02:45:50.526Z,1005.3
2019-01-25T02:46:52.706Z,1005.3
2019-01-25T02:47:54.872Z,1005.3
2019-01-25T02:48:57.120Z,1005.3
2019-01-25T02:49:59.286Z,1005.3
2019-01-25T02:51:01.708Z,1005.3
2019-01-25T02:52:04.197Z,1005.2
2019-01-25T02:53:06.354Z,1005.3
2019-01-25T02:54:08.694Z,1005.3
2019-01-25T02:55:10.874Z,1005.3
2019-01-25T02:56:13.036Z,1005.3
2019-01-25T02:57:15.620Z,1005.3
2019-01-25T02:58:17.809Z,1005.3
2019-01-25T02:59:20.260Z,1005.3
2019-01-25T03:00:22.444Z,1005.3
2019-01-25T03:01:24.903Z,1005.3
2019-01-25T03:02:27.068Z,1005.3
2019-01-25T03:03:29.314Z,1005.3
2019-01-25T03:04:31.785Z,1005.3
2019-01-25T03:05:34.233Z,1005.3
2019-01-25T03:06:36.426Z,1005.3
2019-01-25T03:07:38.896Z,1005.3
2019-01-25T03:08:41.477Z,1005.3
2019-01-25T03:09:43.937Z,1005.3
2019-01-25T03:10:47.613Z,1005.3
2019-01-25T03:11:49.781Z,1005.3
2019-01-25T03:12:51.969Z,1005.3
2019-01-25T03:13:54.120Z,1005.4
2019-01-25T03:14:56.304Z,1005.3
2019-01-25T03:15:58.477Z,1005.3
2019-01-25T03:17:00.639Z,1005.3
2019-01-25T03:18:02.837Z,1005.3
2019-01-25T03:19:05.016Z,1005.3
2019-01-25T03:20:07.813Z,1005.3
2019-01-25T03:21:09.981Z,1005.3
2019-01-25T03:22:12.177Z,1005.3
2019-01-25T03:23:14.629Z,1005.3
2019-01-25T03:24:16.842Z,1005.3
2019-01-25T03:25:19.035Z,1005.3
2019-01-25T03:26:21.866Z,1005.3
2019-01-25T03:27:24.055Z,1005.3
2019-01-25T03:28:26.814Z,1005.3
2019-01-25T03:29:28.982Z,1005.3
2019-01-25T03:30:31.474Z,1005.2
2019-01-25T03:31:34.727Z,1005.2
2019-01-25T03:32:40.833Z,1005.3
2019-01-25T03:33:43.076Z,1005.3
2019-01-25T03:34:45.919Z,1005.3
2019-01-25T03:35:48.780Z,1005.3
2019-01-25T03:36:50.953Z,1005.3
2019-01-25T03:37:53.533Z,1005.3
2019-01-25T03:38:55.693Z,1005.3
2019-01-25T03:39:57.870Z,1005.3
2019-01-25T03:41:00.051Z,1005.3
2019-01-25T03:42:02.811Z,1005.3
2019-01-25T03:43:05.064Z,1005.3
2019-01-25T03:44:07.242Z,1005.3
2019-01-25T03:45:09.799Z,1005.3
2019-01-25T03:46:12.357Z,1005.3
2019-01-25T03:47:14.842Z,1005.2
2019-01-25T03:48:17.108Z,1005.3
2019-01-25T03:49:19.612Z,1005.3
2019-01-25T03:50:21.777Z,1005.3
2019-01-25T03:51:23.968Z,1005.3
2019-01-25T03:52:26.143Z,1005.3
2019-01-25T03:53:28.324Z,1005.3
2019-01-25T03:54:30.493Z,1005.3
2019-01-25T03:55:33.379Z,1005.3
2019-01-25T03:56:35.922Z,1005.3
2019-01-25T03:57:38.101Z,1005.3
2019-01-25T03:58:40.290Z,1005.3
2019-01-25T03:59:42.448Z,1005.4
2019-01-25T04:00:44.944Z,1005.4
2019-01-25T04:01:47.404Z,1005.4
2019-01-25T04:02:49.853Z,1005.4
2019-01-25T04:03:52.037Z,1005.4
2019-01-25T04:04:54.608Z,1005.3
2019-01-25T04:05:57.168Z,1005.4
2019-01-25T04:06:59.360Z,1005.4
2019-01-25T04:08:01.533Z,1005.3
2019-01-25T04:09:03.711Z,1005.3
2019-01-25T04:10:05.885Z,1005.3
2019-01-25T04:11:08.088Z,1005.3
2019-01-25T04:12:10.534Z,1005.3
2019-01-25T04:13:13.007Z,1005.3
2019-01-25T04:14:15.196Z,1005.3
2019-01-25T04:15:17.641Z,1005.3
2019-01-25T04:16:20.222Z,1005.3
2019-01-25T04:17:22.386Z,1005.3
2019-01-25T04:18:24.557Z,1005.3
2019-01-25T04:19:26.730Z,1005.3
2019-01-25T04:20:28.931Z,1005.4
2019-01-25T04:21:31.097Z,1005.3
2019-01-25T04:22:33.582Z,1005.3
2019-01-25T04:23:35.763Z,1005.3
2019-01-25T04:24:37.937Z,1005.3
2019-01-25T04:25:40.104Z,1005.3
2019-01-25T04:26:42.560Z,1005.3
2019-01-25T04:27:44.736Z,1005.4
2019-01-25T04:28:46.940Z,1005.3
2019-01-25T04:29:49.098Z,1005.3
2019-01-25T04:30:51.286Z,1005.4
2019-01-25T04:31:53.529Z,1005.3
2019-01-25T04:32:55.976Z,1005.4
2019-01-25T04:33:58.472Z,1005.4
2019-01-25T04:35:00.929Z,1005.4
2019-01-25T04:36:03.102Z,1005.4
2019-01-25T04:37:05.287Z,1005.4
2019-01-25T04:38:07.480Z,1005.4
2019-01-25T04:39:09.693Z,1005.4
2019-01-25T04:40:11.894Z,1005.4
2019-01-25T04:41:14.748Z,1005.4
2019-01-25T04:42:16.920Z,1005.4
2019-01-25T04:43:19.097Z,1005.4
2019-01-25T04:44:21.289Z,1005.4
2019-01-25T04:45:23.462Z,1005.4
2019-01-25T04:46:25.704Z,1005.4
2019-01-25T04:47:27.886Z,1005.4
2019-01-25T04:48:30.058Z,1005.3
2019-01-25T04:49:32.843Z,1005.4
2019-01-25T04:50:35.636Z,1005.4
2019-01-25T04:51:37.820Z,1005.4
2019-01-25T04:52:40.012Z,1005.4
2019-01-25T04:53:42.204Z,1005.4
2019-01-25T04:54:44.666Z,1005.4
2019-01-25T04:55:46.913Z,1005.4
2019-01-25T04:56:49.656Z,1005.4
2019-01-25T04:57:52.102Z,1005.5
2019-01-25T04:58:54.655Z,1005.4
2019-01-25T04:59:56.848Z,1005.5
2019-01-25T05:00:59.031Z,1005.4
2019-01-25T05:02:01.191Z,1005.5
2019-01-25T05:03:03.672Z,1005.4
2019-01-25T05:04:05.800Z,1005.5
2019-01-25T05:05:07.913Z,1005.5
2019-01-25T05:06:10.315Z,1005.5
2019-01-25T05:07:12.827Z,1005.5
2019-01-25T05:08:16.770Z,1005.5
2019-01-25T05:09:18.897Z,1005.5
2019-01-25T05:10:21.005Z,1005.5
2019-01-25T05:11:23.107Z,1005.5
2019-01-25T05:12:25.493Z,1005.6
2019-01-25T05:13:27.594Z,1005.5
2019-01-25T05:14:29.987Z,1005.6
2019-01-25T05:15:32.175Z,1005.6
2019-01-25T05:16:34.346Z,1005.6
2019-01-25T05:17:36.454Z,1005.5
2019-01-25T05:18:39.249Z,1005.6
2019-01-25T05:19:41.353Z,1005.5
2019-01-25T05:20:43.794Z,1005.6
2019-01-25T05:21:45.964Z,1005.5
2019-01-25T05:22:48.100Z,1005.6
2019-01-25T05:23:50.515Z,1005.6
2019-01-25T05:24:53.320Z,1005.6
2019-01-25T05:25:55.734Z,1005.6
2019-01-25T05:26:58.105Z,1005.6
2019-01-25T05:28:00.627Z,1005.6
2019-01-25T05:29:03.121Z,1005.6
2019-01-25T05:30:05.216Z,1005.6
2019-01-25T05:31:07.345Z,1005.6
2019-01-25T05:32:09.440Z,1005.6
2019-01-25T05:33:11.556Z,1005.6
2019-01-25T05:34:13.651Z,1005.6
2019-01-25T05:35:15.772Z,1005.6
2019-01-25T05:36:17.867Z,1005.5
2019-01-25T05:37:20.285Z,1005.6
2019-01-25T05:38:22.394Z,1005.6
2019-01-25T05:39:24.477Z,1005.7
2019-01-25T05:40:26.953Z,1005.7
2019-01-25T05:41:29.227Z,1005.6
2019-01-25T05:42:31.370Z,1005.6
2019-01-25T05:43:33.767Z,1005.6
2019-01-25T05:44:35.856Z,1005.6
2019-01-25T05:45:37.980Z,1005.6
2019-01-25T05:46:40.072Z,1005.6
2019-01-25T05:47:42.228Z,1005.6
2019-01-25T05:48:44.343Z,1005.7
2019-01-25T05:49:47.041Z,1005.6
2019-01-25T05:50:49.147Z,1005.6
2019-01-25T05:51:51.261Z,1005.6
2019-01-25T05:52:53.357Z,1005.7
2019-01-25T05:53:55.479Z,1005.7
2019-01-25T05:54:57.588Z,1005.7
2019-01-25T05:55:59.687Z,1005.6
2019-01-25T05:57:02.079Z,1005.7
2019-01-25T05:58:04.184Z,1005.7
2019-01-25T05:59:06.307Z,1005.6
2019-01-25T06:00:09.082Z,1005.6
2019-01-25T06:01:11.490Z,1005.6
2019-01-25T06:02:13.596Z,1005.6
2019-01-25T06:03:15.694Z,1005.6
2019-01-25T06:04:17.824Z,1005.6
2019-01-25T06:05:19.920Z,1005.7
2019-01-25T06:06:22.033Z,1005.6
2019-01-25T06:07:24.135Z,1005.7
2019-01-25T06:08:26.251Z,1005.7
2019-01-25T06:09:28.343Z,1005.7
2019-01-25T06:10:31.122Z,1005.6
2019-01-25T06:11:35.885Z,1005.6
2019-01-25T06:12:37.977Z,1005.7
2019-01-25T06:13:40.104Z,1005.7
2019-01-25T06:14:42.210Z,1005.7
2019-01-25T06:15:44.304Z,1005.6
2019-01-25T06:16:46.415Z,1005.7
2019-01-25T06:17:48.545Z,1005.6
2019-01-25T06:18:50.686Z,1005.7
2019-01-25T06:19:53.383Z,1005.6
2019-01-25T06:20:55.801Z,1005.6
2019-01-25T06:21:58.339Z,1005.7
2019-01-25T06:23:00.437Z,1005.6
2019-01-25T06:24:02.532Z,1005.6
2019-01-25T06:25:04.654Z,1005.6
2019-01-25T06:26:07.169Z,1005.6
2019-01-25T06:27:09.275Z,1005.6
2019-01-25T06:28:11.384Z,1005.6
2019-01-25T06:29:13.474Z,1005.5
2019-01-25T06:30:17.118Z,1005.5
2019-01-25T06:31:19.225Z,1005.5
2019-01-25T06:32:21.328Z,1005.5
2019-01-25T06:33:23.413Z,1005.5
2019-01-25T06:34:25.818Z,1005.5
2019-01-25T06:35:27.922Z,1005.5
2019-01-25T06:36:30.054Z,1005.5
2019-01-25T06:37:32.179Z,1005.5
2019-01-25T06:38:34.580Z,1005.5
2019-01-25T06:39:36.691Z,1005.5
2019-01-25T06:40:38.786Z,1005.5
2019-01-25T06:41:44.511Z,1005.5
2019-01-25T06:42:46.884Z,1005.5
2019-01-25T06:43:48.987Z,1005.5
2019-01-25T06:44:51.090Z,1005.5
2019-01-25T06:45:53.170Z,1005.5
2019-01-25T06:46:55.288Z,1005.5
2019-01-25T06:47:57.386Z,1005.5
2019-01-25T06:48:59.472Z,1005.5
2019-01-25T06:50:01.584Z,1005.5
2019-01-25T06:51:04.109Z,1005.5
2019-01-25T06:52:06.296Z,1005.5
2019-01-25T06:53:08.790Z,1005.5
2019-01-25T06:54:10.882Z,1005.5
2019-01-25T06:55:12.968Z,1005.5
2019-01-25T06:56:15.101Z,1005.6
2019-01-25T06:57:17.206Z,1005.6
2019-01-25T06:58:19.322Z,1005.6
2019-01-25T06:59:21.427Z,1005.5
2019-01-25T07:00:23.519Z,1005.6
2019-01-25T07:01:25.632Z,1005.5
2019-01-25T07:02:27.761Z,1005.6
2019-01-25T07:03:29.863Z,1005.5
2019-01-25T07:04:31.962Z,1005.5
2019-01-25T07:05:34.088Z,1005.5
2019-01-25T07:06:36.173Z,1005.5
2019-01-25T07:07:38.277Z,1005.5
2019-01-25T07:08:40.376Z,1005.5
2019-01-25T07:09:42.849Z,1005.5
2019-01-25T07:10:44.964Z,1005.5
2019-01-25T07:11:52.039Z,1005.5
2019-01-25T07:12:54.527Z,1005.5
2019-01-25T07:13:56.899Z,1005.5
2019-01-25T07:14:59.016Z,1005.5
2019-01-25T07:16:01.515Z,1005.5
2019-01-25T07:17:04.061Z,1005.6
2019-01-25T07:18:06.449Z,1005.6
2019-01-25T07:19:08.533Z,1005.5
2019-01-25T07:20:10.647Z,1005.5
2019-01-25T07:21:12.752Z,1005.5
2019-01-25T07:22:14.844Z,1005.5
2019-01-25T07:23:16.985Z,1005.5
2019-01-25T07:24:19.109Z,1005.5
2019-01-25T07:25:22.083Z,1005.5
2019-01-25T07:26:24.195Z,1005.5
2019-01-25T07:27:26.298Z,1005.4
2019-01-25T07:28:28.387Z,1005.4
2019-01-25T07:29:30.562Z,1005.5
2019-01-25T07:30:33.306Z,1005.4
2019-01-25T07:31:35.555Z,1005.4
2019-01-25T07:32:38.073Z,1005.5
2019-01-25T07:33:40.443Z,1005.4
2019-01-25T07:34:42.884Z,1005.4
2019-01-25T07:35:45.362Z,1005.4
2019-01-25T07:36:47.487Z,1005.4
2019-01-25T07:37:49.732Z,1005.4
2019-01-25T07:38:52.279Z,1005.4
2019-01-25T07:39:54.625Z,1005.4
2019-01-25T07:40:56.786Z,1005.4
2019-01-25T07:42:02.410Z,1005.5
2019-01-25T07:43:05.092Z,1005.5
2019-01-25T07:44:07.576Z,1005.5
2019-01-25T07:45:09.789Z,1005.5
2019-01-25T07:46:12.127Z,1005.5
2019-01-25T07:47:14.700Z,1005.5
2019-01-25T07:48:16.861Z,1005.5
2019-01-25T07:49:19.155Z,1005.5
2019-01-25T07:50:21.281Z,1005.5
2019-01-25T07:51:23.499Z,1005.5
2019-01-25T07:52:25.772Z,1005.5
2019-01-25T07:53:28.038Z,1005.5
2019-01-25T07:54:30.293Z,1005.5
2019-01-25T07:55:32.481Z,1005.4
2019-01-25T07:56:34.985Z,1005.4
2019-01-25T07:57:37.101Z,1005.4
2019-01-25T07:58:39.614Z,1005.3
2019-01-25T07:59:41.781Z,1005.4
2019-01-25T08:00:44.281Z,1005.4
2019-01-25T08:01:46.808Z,1005.3
2019-01-25T08:02:49.024Z,1005.4
2019-01-25T08:03:51.269Z,1005.4
2019-01-25T08:04:53.532Z,1005.3
2019-01-25T08:05:55.704Z,1005.4
2019-01-25T08:06:58.290Z,1005.4
2019-01-25T08:08:00.556Z,1005.4
2019-01-25T08:09:03.168Z,1005.5
2019-01-25T08:10:05.396Z,1005.4
2019-01-25T08:11:08.003Z,1005.4
2019-01-25T08:12:10.331Z,1005.3
2019-01-25T08:13:12.553Z,1005.3
2019-01-25T08:14:14.744Z,1005.5
2019-01-25T08:15:16.931Z,1005.4
2019-01-25T08:16:19.134Z,1005.3
2019-01-25T08:17:21.621Z,1005.4
2019-01-25T08:18:23.830Z,1005.3
2019-01-25T08:19:26.167Z,1005.4
2019-01-25T08:20:28.488Z,1005.4
2019-01-25T08:21:30.733Z,1005.4
2019-01-25T08:22:32.949Z,1005.4
2019-01-25T08:23:35.430Z,1005.4
2019-01-25T08:24:37.639Z,1005.4
2019-01-25T08:25:39.901Z,1005.4
2019-01-25T08:26:42.105Z,1005.4
2019-01-25T08:27:44.674Z,1005.4
2019-01-25T08:28:47.128Z,1005.5
2019-01-25T08:29:49.770Z,1005.5
2019-01-25T08:30:52.038Z,1005.5
2019-01-25T08:31:54.221Z,1005.5
2019-01-25T08:32:56.356Z,1005.5
2019-01-25T08:33:58.875Z,1005.5
2019-01-25T08:35:01.452Z,1005.5
2019-01-25T08:36:03.942Z,1005.4
2019-01-25T08:37:06.233Z,1005.5
2019-01-25T08:38:08.462Z,1005.5
2019-01-25T08:39:11.585Z,1005.4
2019-01-25T08:40:14.212Z,1005.5
2019-01-25T08:41:16.750Z,1005.5
2019-01-25T08:42:18.979Z,1005.5
2019-01-25T08:43:21.305Z,1005.5
2019-01-25T08:44:23.736Z,1005.4
2019-01-25T08:45:26.244Z,1005.4
2019-01-25T08:46:28.525Z,1005.4
2019-01-25T08:47:31.015Z,1005.4
2019-01-25T08:48:33.189Z,1005.3
2019-01-25T08:49:35.492Z,1005.3
2019-01-25T08:50:38.217Z,1005.2
2019-01-25T08:51:40.942Z,1005.3
2019-01-25T08:52:43.980Z,1005.3
2019-01-25T08:53:46.257Z,1005.4
2019-01-25T08:54:48.493Z,1005.4
2019-01-25T08:55:50.790Z,1005.4
2019-01-25T08:56:53.211Z,1005.4
2019-01-25T08:57:55.411Z,1005.5
2019-01-25T08:58:59.174Z,1005.4
2019-01-25T09:00:01.469Z,1005.4
2019-01-25T09:01:03.875Z,1005.4
2019-01-25T09:02:06.646Z,1005.5
2019-01-25T09:03:08.770Z,1005.5
2019-01-25T09:04:10.899Z,1005.4
2019-01-25T09:05:13.300Z,1005.5
2019-01-25T09:06:15.413Z,1005.5
2019-01-25T09:07:17.527Z,1005.5
2019-01-25T09:08:19.619Z,1005.4
2019-01-25T09:09:21.734Z,1005.5
2019-01-25T09:10:23.847Z,1005.4
2019-01-25T09:11:26.223Z,1005.4
2019-01-25T09:12:28.337Z,1005.4
2019-01-25T09:13:30.467Z,1005.4
2019-01-25T09:14:32.564Z,1005.4
2019-01-25T09:15:34.752Z,1005.5
2019-01-25T09:16:37.132Z,1005.5
2019-01-25T09:17:39.249Z,1005.5
2019-01-25T09:18:41.350Z,1005.5
2019-01-25T09:19:43.529Z,1005.5
2019-01-25T09:20:45.624Z,1005.5
2019-01-25T09:21:48.018Z,1005.4
2019-01-25T09:22:50.131Z,1005.5
2019-01-25T09:23:52.222Z,1005.4
2019-01-25T09:24:54.378Z,1005.4
2019-01-25T09:26:01.359Z,1005.5
2019-01-25T09:27:04.054Z,1005.4
2019-01-25T09:28:06.145Z,1005.4
2019-01-25T09:29:08.247Z,1005.5
2019-01-25T09:30:10.353Z,1005.5
2019-01-25T09:31:12.456Z,1005.5
2019-01-25T09:32:14.542Z,1005.5
2019-01-25T09:33:16.660Z,1005.6
2019-01-25T09:34:18.776Z,1005.7
2019-01-25T09:35:20.873Z,1005.7
2019-01-25T09:36:22.977Z,1005.6
2019-01-25T09:37:25.779Z,1005.7
2019-01-25T09:38:27.891Z,1005.7
2019-01-25T09:39:30.006Z,1005.7
2019-01-25T09:40:32.119Z,1005.7
2019-01-25T09:41:34.209Z,1005.7
2019-01-25T09:42:36.305Z,1005.7
2019-01-25T09:43:38.429Z,1005.7
2019-01-25T09:44:40.513Z,1005.7
2019-01-25T09:45:42.624Z,1005.7
2019-01-25T09:46:44.738Z,1005.7
2019-01-25T09:47:47.117Z,1005.7
2019-01-25T09:48:49.542Z,1005.7
2019-01-25T09:49:51.642Z,1005.7
2019-01-25T09:50:54.030Z,1005.7
2019-01-25T09:51:56.123Z,1005.6
2019-01-25T09:52:58.235Z,1005.6
2019-01-25T09:54:00.343Z,1005.6
2019-01-25T09:55:03.040Z,1005.6
2019-01-25T09:56:05.542Z,1005.6
2019-01-25T09:57:07.635Z,1005.6
2019-01-25T09:58:09.755Z,1005.5
2019-01-25T09:59:12.151Z,1005.5
2019-01-25T10:00:14.257Z,1005.6
2019-01-25T10:01:16.353Z,1005.5
2019-01-25T10:02:18.467Z,1005.6
2019-01-25T10:03:20.952Z,1005.6
2019-01-25T10:04:23.045Z,1005.5
2019-01-25T10:05:25.168Z,1005.5
2019-01-25T10:06:27.273Z,1005.5
2019-01-25T10:07:29.391Z,1005.5
2019-01-25T10:08:31.501Z,1005.5
2019-01-25T10:09:33.602Z,1005.6
2019-01-25T10:10:35.702Z,1005.6
2019-01-25T10:11:37.822Z,1005.6
2019-01-25T10:12:43.875Z,1005.6
2019-01-25T10:13:46.262Z,1005.5
2019-01-25T10:14:48.384Z,1005.5
2019-01-25T10:15:50.488Z,1005.5
2019-01-25T10:16:52.584Z,1005.5
2019-01-25T10:17:54.993Z,1005.5
2019-01-25T10:18:57.101Z,1005.5
2019-01-25T10:19:59.591Z,1005.5
2019-01-25T10:21:01.721Z,1005.5
2019-01-25T10:22:03.799Z,1005.4
2019-01-25T10:23:06.206Z,1005.5
2019-01-25T10:24:08.374Z,1005.5
2019-01-25T10:25:10.485Z,1005.5
2019-01-25T10:26:12.574Z,1005.5
2019-01-25T10:27:14.698Z,1005.5
2019-01-25T10:28:16.806Z,1005.5
2019-01-25T10:29:18.897Z,1005.5
2019-01-25T10:30:21.022Z,1005.5
2019-01-25T10:31:23.118Z,1005.5
2019-01-25T10:32:25.217Z,1005.4
2019-01-25T10:33:27.607Z,1005.4
2019-01-25T10:34:29.728Z,1005.4
2019-01-25T10:35:31.969Z,1005.3
2019-01-25T10:36:34.092Z,1005.4
2019-01-25T10:37:36.488Z,1005.4
2019-01-25T10:38:38.581Z,1005.4
2019-01-25T10:39:40.733Z,1005.4
2019-01-25T10:40:42.850Z,1005.4
2019-01-25T10:41:44.949Z,1005.4
2019-01-25T10:42:53.803Z,1005.4
2019-01-25T10:43:56.016Z,1005.4
2019-01-25T10:44:58.141Z,1005.4
2019-01-25T10:46:05.682Z,1005.4
2019-01-25T10:47:07.794Z,1005.4
2019-01-25T10:48:09.916Z,1005.4
2019-01-25T10:49:12.024Z,1005.5
2019-01-25T10:50:14.123Z,1005.5
2019-01-25T10:51:16.240Z,1005.4
2019-01-25T10:52:18.366Z,1005.5
2019-01-25T10:53:20.755Z,1005.5
2019-01-25T10:54:22.910Z,1005.4
2019-01-25T10:55:24.993Z,1005.4
2019-01-25T10:56:27.108Z,1005.4
2019-01-25T10:57:29.209Z,1005.4
2019-01-25T10:58:31.328Z,1005.4
2019-01-25T10:59:33.413Z,1005.4
2019-01-25T11:00:35.533Z,1005.3
2019-01-25T11:01:37.635Z,1005.3
2019-01-25T11:02:40.032Z,1005.3
2019-01-25T11:03:42.156Z,1005.3
2019-01-25T11:04:44.253Z,1005.3
2019-01-25T11:05:46.361Z,1005.3
2019-01-25T11:06:48.509Z,1005.3
2019-01-25T11:07:50.628Z,1005.2
2019-01-25T11:08:53.287Z,1005.2
2019-01-25T11:09:55.425Z,1005.2
2019-01-25T11:10:57.533Z,1005.1
2019-01-25T11:11:59.619Z,1005.1
2019-01-25T11:13:01.747Z,1005.2
2019-01-25T11:14:03.849Z,1005.1
2019-01-25T11:15:05.940Z,1005.1
2019-01-25T11:16:12.404Z,1005.1
2019-01-25T11:17:14.517Z,1005.1
2019-01-25T11:18:16.614Z,1005.1
2019-01-25T11:19:18.729Z,1005
2019-01-25T11:20:21.118Z,1005
2019-01-25T11:21:23.223Z,1005
2019-01-25T11:22:25.331Z,1005
2019-01-25T11:23:27.519Z,1005
2019-01-25T11:24:29.640Z,1005
2019-01-25T11:25:31.772Z,1004.9
2019-01-25T11:26:34.165Z,1004.9
2019-01-25T11:27:36.325Z,1004.9
2019-01-25T11:28:38.414Z,1004.9
2019-01-25T11:29:40.847Z,1004.8
2019-01-25T11:30:42.955Z,1004.8
2019-01-25T11:31:45.088Z,1004.8
2019-01-25T11:32:47.189Z,1004.8
2019-01-25T11:33:49.303Z,1004.8
2019-01-25T11:34:51.412Z,1004.8
2019-01-25T11:35:53.501Z,1004.8
2019-01-25T11:36:55.966Z,1004.7
2019-01-25T11:37:58.111Z,1004.8
2019-01-25T11:39:00.237Z,1004.7
2019-01-25T11:40:02.391Z,1004.7
2019-01-25T11:41:04.519Z,1004.7
2019-01-25T11:42:06.636Z,1004.7
2019-01-25T11:43:09.504Z,1004.7
2019-01-25T11:44:11.629Z,1004.6
2019-01-25T11:45:13.727Z,1004.6
2019-01-25T11:46:15.856Z,1004.5
2019-01-25T11:47:18.740Z,1004.6
2019-01-25T11:48:21.515Z,1004.6
2019-01-25T11:49:23.906Z,1004.5
2019-01-25T11:50:26.045Z,1004.6
2019-01-25T11:51:28.543Z,1004.6
2019-01-25T11:52:30.679Z,1004.6
2019-01-25T11:53:32.799Z,1004.6
2019-01-25T11:54:35.185Z,1004.6
2019-01-25T11:55:37.294Z,1004.6
2019-01-25T11:56:39.418Z,1004.6
2019-01-25T11:57:41.515Z,1004.6
2019-01-25T11:58:43.634Z,1004.6
2019-01-25T11:59:45.747Z,1004.5
2019-01-25T12:00:47.855Z,1004.5
2019-01-25T12:01:49.980Z,1004.5
2019-01-25T12:02:52.434Z,1004.4
2019-01-25T12:03:54.541Z,1004.5
2019-01-25T12:04:56.667Z,1004.5
2019-01-25T12:05:58.758Z,1004.5
2019-01-25T12:07:00.882Z,1004.5
2019-01-25T12:08:02.985Z,1004.5
2019-01-25T12:09:05.100Z,1004.6
2019-01-25T12:10:07.225Z,1004.5
2019-01-25T12:11:10.028Z,1004.6
2019-01-25T12:12:12.155Z,1004.6
2019-01-25T12:13:16.959Z,1004.6
2019-01-25T12:14:19.392Z,1004.6
2019-01-25T12:15:21.494Z,1004.5
2019-01-25T12:16:23.603Z,1004.5
2019-01-25T12:17:26.099Z,1004.5
2019-01-25T12:18:28.269Z,1004.5
2019-01-25T12:19:30.754Z,1004.5
2019-01-25T12:20:32.864Z,1004.5
2019-01-25T12:21:34.977Z,1004.5
2019-01-25T12:22:37.214Z,1004.5
2019-01-25T12:23:39.924Z,1004.4
2019-01-25T12:24:42.025Z,1004.5
2019-01-25T12:25:44.148Z,1004.4
2019-01-25T12:26:46.302Z,1004.5
2019-01-25T12:27:48.401Z,1004.5
2019-01-25T12:28:50.793Z,1004.4
2019-01-25T12:29:53.196Z,1004.5
2019-01-25T12:30:55.286Z,1004.5
2019-01-25T12:31:57.682Z,1004.4
2019-01-25T12:32:59.794Z,1004.4
2019-01-25T12:34:03.175Z,1004.5
2019-01-25T12:35:07.954Z,1004.4
2019-01-25T12:36:10.061Z,1004.5
2019-01-25T12:37:12.161Z,1004.5
2019-01-25T12:38:14.261Z,1004.4
2019-01-25T12:39:16.377Z,1004.4
2019-01-25T12:40:18.481Z,1004.3
2019-01-25T12:41:20.903Z,1004.4
2019-01-25T12:42:23.019Z,1004.4
2019-01-25T12:43:25.105Z,1004.3
2019-01-25T12:44:27.511Z,1004.3
2019-01-25T12:45:29.612Z,1004.3
2019-01-25T12:46:32.382Z,1004.3
2019-01-25T12:47:34.478Z,1004.2
2019-01-25T12:48:36.890Z,1004.2
2019-01-25T12:49:38.993Z,1004.2
2019-01-25T12:50:41.375Z,1004.2
2019-01-25T12:51:43.532Z,1004.2
2019-01-25T12:52:45.818Z,1004.2
2019-01-25T12:53:47.936Z,1004.1
2019-01-25T12:54:50.103Z,1004.1
2019-01-25T12:55:52.349Z,1004.2
2019-01-25T12:56:54.445Z,1004.2
2019-01-25T12:57:56.565Z,1004.2